Time;durP1;ratioP1;P1;durP2;ratioP2;P2;SDS_P1;SDS_P2;PMS_P1;PMS_P2;Temp;Humidity;BMP_temperature;BMP_pressure;BME280_temperature;BME280_humidity;BME280_pressure;Samples;Min_cycle;Max_cycle;Signal;HPM_P1;HPM_P2
2022/10/15 00:01:16;;;;;;;16.97;12.27;;;18.40;99.90;;;;;;5011859;28;20211;-71
2022/10/15 00:03:44;;;;;;;18.53;11.17;;;18.50;99.90;;;;;;5028921;28;20204;-71
2022/10/15 00:06:17;;;;;;;15.17;10.90;;;18.50;99.90;;;;;;5027474;28;20566;-71
2022/10/15 00:08:45;;;;;;;16.63;11.63;;;18.50;99.90;;;;;;5056016;28;20194;-71
2022/10/15 00:11:16;;;;;;;21.70;11.43;;;18.40;99.90;;;;;;5007912;28;20653;-71
2022/10/15 00:13:44;;;;;;;16.57;11.50;;;18.40;99.90;;;;;;5045654;28;20219;-71
2022/10/15 00:16:15;;;;;;;17.93;11.17;;;18.40;99.90;;;;;;5030125;28;20302;-71
2022/10/15 00:18:42;;;;;;;14.50;11.10;;;18.40;99.90;;;;;;5029832;28;20315;-71
2022/10/15 00:21:11;;;;;;;17.83;10.83;;;18.40;99.90;;;;;;5044331;28;20192;-71
2022/10/15 00:23:39;;;;;;;16.43;12.00;;;18.40;99.90;;;;;;5044545;28;20264;-71
2022/10/15 00:26:10;;;;;;;14.43;11.70;;;18.40;99.90;;;;;;5028229;28;20257;-71
2022/10/15 00:28:36;;;;;;;12.13;10.90;;;18.40;99.90;;;;;;5027055;28;20638;-71
2022/10/15 00:31:12;;;;;;;12.07;10.77;;;18.40;99.90;;;;;;5031779;28;20196;-71
2022/10/15 00:33:40;;;;;;;14.93;10.93;;;18.40;99.90;;;;;;5030288;28;20184;-71
2022/10/15 00:36:16;;;;;;;16.30;10.87;;;18.40;99.90;;;;;;5030456;28;20673;-71
2022/10/15 00:38:43;;;;;;;14.43;11.50;;;18.30;99.90;;;;;;5020430;28;20192;-71
2022/10/15 00:41:19;;;;;;;16.53;11.23;;;18.30;99.90;;;;;;5044775;28;20191;-71
2022/10/15 00:43:52;;;;;;;16.30;11.77;;;18.30;99.90;;;;;;5044849;28;20211;-71
2022/10/15 00:46:38;;;;;;;14.10;10.90;;;18.30;99.90;;;;;;5023390;28;20191;-71
2022/10/15 00:49:33;;;;;;;12.27;10.40;;;18.30;99.90;;;;;;5021129;28;20203;-71
2022/10/15 00:52:16;;;;;;;12.07;10.33;;;18.20;99.90;;;;;;5019591;28;20199;-71
2022/10/15 00:55:16;;;;;;;14.53;10.90;;;18.30;99.90;;;;;;5009515;28;20187;-71
2022/10/15 00:57:46;;;;;;;12.47;10.63;;;18.20;99.90;;;;;;5020075;28;20192;-71
2022/10/15 01:00:15;;;;;;;16.03;10.90;;;18.20;99.90;;;;;;5033017;28;20237;-71
2022/10/15 01:02:44;;;;;;;12.77;10.23;;;18.30;99.90;;;;;;5047076;28;20808;-72
2022/10/15 01:05:13;;;;;;;16.43;11.17;;;18.30;99.90;;;;;;5033028;28;20215;-71
2022/10/15 01:07:40;;;;;;;14.63;11.17;;;18.30;99.90;;;;;;5011160;28;20283;-71
2022/10/15 01:10:09;;;;;;;13.47;10.37;;;18.30;99.90;;;;;;5027890;28;20200;-71
2022/10/15 01:13:10;;;;;;;14.60;10.27;;;18.30;99.90;;;;;;5043635;28;20659;-71
2022/10/15 01:15:55;;;;;;;18.10;11.40;;;18.30;99.90;;;;;;5030348;28;20180;-71
2022/10/15 01:18:46;;;;;;;12.60;10.90;;;18.30;99.90;;;;;;5011575;28;20218;-71
2022/10/15 01:21:38;;;;;;;15.60;10.90;;;18.20;99.90;;;;;;5030441;28;20196;-71
2022/10/15 01:24:31;;;;;;;12.67;11.40;;;18.30;99.90;;;;;;5048590;28;20290;-71
2022/10/15 01:27:32;;;;;;;12.40;10.57;;;18.30;99.90;;;;;;5031484;28;20200;-71
2022/10/15 01:30:38;;;;;;;19.60;11.27;;;18.30;99.90;;;;;;5023988;28;20327;-71
2022/10/15 01:33:26;;;;;;;12.97;10.07;;;18.30;99.90;;;;;;5012324;28;20250;-71
2022/10/15 01:36:16;;;;;;;12.53;10.60;;;18.30;99.90;;;;;;5022250;28;20214;-71
2022/10/15 01:39:04;;;;;;;12.87;10.30;;;18.30;99.90;;;;;;5033275;28;20537;-71
2022/10/15 01:41:43;;;;;;;19.57;11.77;;;18.30;99.90;;;;;;5031572;28;20621;-71
2022/10/15 01:44:19;;;;;;;13.83;10.60;;;18.40;99.90;;;;;;5033499;28;20214;-71
2022/10/15 01:46:57;;;;;;;18.57;11.83;;;18.30;99.90;;;;;;5024685;28;20207;-71
2022/10/15 01:49:31;;;;;;;19.07;11.47;;;18.30;99.90;;;;;;5043696;28;20899;-71
2022/10/15 01:52:05;;;;;;;18.27;11.53;;;18.40;99.90;;;;;;5047590;28;20180;-71
2022/10/15 01:54:33;;;;;;;15.87;11.57;;;18.40;99.90;;;;;;5048269;28;20191;-71
2022/10/15 01:57:03;;;;;;;12.43;10.43;;;18.40;99.90;;;;;;5014981;28;20581;-71
2022/10/15 01:59:32;;;;;;;12.57;11.23;;;18.40;99.90;;;;;;5048086;28;20591;-71
2022/10/15 02:01:59;;;;;;;14.57;10.30;;;18.40;99.90;;;;;;5047806;28;20315;-71
2022/10/15 02:04:32;;;;;;;17.20;10.47;;;18.40;99.90;;;;;;5038498;28;20686;-71
2022/10/15 02:07:30;;;;;;;13.27;10.70;;;18.40;99.90;;;;;;5007772;28;20191;-71
2022/10/15 02:10:32;;;;;;;15.00;11.13;;;18.50;99.90;;;;;;5032406;28;20263;-71
2022/10/15 02:13:39;;;;;;;15.73;10.73;;;18.40;99.90;;;;;;5027590;28;20200;-71
2022/10/15 02:16:45;;;;;;;16.93;10.60;;;18.40;99.90;;;;;;5033783;28;20633;-71
2022/10/15 02:19:43;;;;;;;13.73;10.83;;;18.40;99.90;;;;;;5009850;28;20203;-71
2022/10/15 02:22:23;;;;;;;17.17;10.77;;;18.40;99.90;;;;;;5032018;28;20232;-71
2022/10/15 02:25:03;;;;;;;16.83;11.00;;;18.30;99.90;;;;;;5032412;28;20299;-71
2022/10/15 02:27:34;;;;;;;14.27;10.33;;;18.30;99.90;;;;;;5047333;28;20188;-71
2022/10/15 02:30:07;;;;;;;17.73;10.50;;;18.30;99.90;;;;;;5043293;28;20791;-71
2022/10/15 02:32:38;;;;;;;15.50;10.57;;;18.30;99.90;;;;;;5029503;28;20720;-71
2022/10/15 02:35:10;;;;;;;13.73;10.57;;;18.30;99.90;;;;;;5046514;28;20514;-71
2022/10/15 02:37:44;;;;;;;15.77;10.60;;;18.30;99.90;;;;;;5024968;28;20196;-71
2022/10/15 02:40:12;;;;;;;16.27;10.13;;;18.30;99.90;;;;;;5040450;28;20183;-71
2022/10/15 02:42:39;;;;;;;15.10;11.07;;;18.20;99.90;;;;;;5063608;28;20218;-71
2022/10/15 02:45:07;;;;;;;15.10;10.03;;;18.20;99.90;;;;;;5042780;28;20220;-71
2022/10/15 02:47:33;;;;;;;13.73;10.33;;;18.20;99.90;;;;;;5029184;28;20318;-71
2022/10/15 02:49:59;;;;;;;12.47;10.30;;;18.10;99.90;;;;;;5032006;28;20210;-71
2022/10/15 02:52:26;;;;;;;19.27;10.53;;;18.10;99.90;;;;;;5044194;28;20204;-71
2022/10/15 02:54:53;;;;;;;18.90;10.63;;;18.10;99.90;;;;;;5059011;28;20187;-71
2022/10/15 02:57:19;;;;;;;14.53;10.97;;;18.00;99.90;;;;;;5067067;28;20219;-71
2022/10/15 02:59:45;;;;;;;15.50;11.07;;;18.00;99.90;;;;;;5032397;28;20525;-71
2022/10/15 03:02:12;;;;;;;15.00;10.53;;;18.10;99.90;;;;;;5029896;28;20614;-71
2022/10/15 03:04:38;;;;;;;15.60;10.90;;;18.10;99.90;;;;;;5046749;28;20216;-71
2022/10/15 03:07:05;;;;;;;15.57;11.80;;;18.00;99.90;;;;;;5028829;28;20293;-71
2022/10/15 03:09:31;;;;;;;15.43;11.63;;;18.10;99.90;;;;;;5035149;28;20279;-71
2022/10/15 03:11:58;;;;;;;15.80;11.63;;;18.10;99.90;;;;;;5045668;28;20198;-71
2022/10/15 03:14:25;;;;;;;19.93;11.27;;;18.10;99.90;;;;;;5013085;28;20614;-71
2022/10/15 03:16:52;;;;;;;16.43;11.33;;;18.00;99.90;;;;;;5022549;28;20291;-71
2022/10/15 03:19:19;;;;;;;16.10;11.20;;;18.00;99.90;;;;;;5034452;28;20218;-71
2022/10/15 03:21:46;;;;;;;17.47;11.83;;;18.00;99.90;;;;;;5028651;28;20269;-71
2022/10/15 03:24:13;;;;;;;15.00;11.10;;;18.00;99.90;;;;;;5043176;28;20675;-71
2022/10/15 03:26:39;;;;;;;17.40;11.53;;;18.10;99.90;;;;;;5021428;28;20553;-71
2022/10/15 03:29:06;;;;;;;16.47;11.00;;;18.00;99.90;;;;;;5034891;28;20337;-71
2022/10/15 03:31:32;;;;;;;13.50;11.00;;;18.00;99.90;;;;;;5024573;28;20188;-71
2022/10/15 03:33:59;;;;;;;15.27;11.73;;;18.00;99.90;;;;;;5021374;28;20207;-71
2022/10/15 03:36:26;;;;;;;21.13;11.40;;;18.00;99.90;;;;;;5022449;28;20200;-71
2022/10/15 03:38:53;;;;;;;17.57;10.97;;;18.10;99.90;;;;;;5028641;28;20222;-71
2022/10/15 03:41:19;;;;;;;18.73;11.23;;;18.00;99.90;;;;;;5028548;28;20749;-71
2022/10/15 03:43:45;;;;;;;21.73;11.23;;;18.10;99.90;;;;;;5047369;28;20216;-71
2022/10/15 03:46:11;;;;;;;17.50;10.53;;;18.10;99.90;;;;;;5020500;28;20854;-71
2022/10/15 03:48:39;;;;;;;15.17;10.70;;;18.10;99.90;;;;;;5011501;28;20183;-71
2022/10/15 03:51:05;;;;;;;15.43;10.27;;;18.10;99.90;;;;;;5009748;28;20646;-71
2022/10/15 03:53:32;;;;;;;17.60;10.43;;;18.10;99.90;;;;;;4997919;28;20197;-71
2022/10/15 03:56:06;;;;;;;15.67;10.30;;;18.10;99.90;;;;;;5017742;28;20362;-71
2022/10/15 03:58:32;;;;;;;12.80;9.63;;;18.00;99.90;;;;;;5046178;28;20538;-71
2022/10/15 04:00:58;;;;;;;20.63;10.57;;;18.00;99.90;;;;;;5039693;28;20559;-71
2022/10/15 04:03:24;;;;;;;16.93;9.87;;;18.10;99.90;;;;;;5033823;28;21152;-71
2022/10/15 04:05:52;;;;;;;16.43;9.83;;;18.10;99.90;;;;;;5046142;28;20518;-71
2022/10/15 04:08:20;;;;;;;14.47;11.03;;;18.10;99.90;;;;;;5030720;28;20198;-71
2022/10/15 04:10:47;;;;;;;15.47;10.90;;;18.10;99.90;;;;;;5043196;28;20317;-71
2022/10/15 04:13:13;;;;;;;14.80;9.73;;;18.20;99.90;;;;;;5012150;28;20203;-71
2022/10/15 04:15:40;;;;;;;12.40;10.10;;;18.20;99.90;;;;;;5030775;28;20274;-71
2022/10/15 04:18:07;;;;;;;13.87;10.37;;;18.20;99.90;;;;;;5037109;28;20192;-71
2022/10/15 04:20:33;;;;;;;14.37;9.67;;;18.20;99.90;;;;;;5029544;28;20213;-71
2022/10/15 04:23:00;;;;;;;11.53;9.23;;;18.20;99.90;;;;;;5054924;28;20185;-71
2022/10/15 04:25:26;;;;;;;13.03;8.97;;;18.20;99.90;;;;;;5011101;28;20737;-71
2022/10/15 04:27:53;;;;;;;13.17;9.33;;;18.20;99.90;;;;;;5047356;28;20202;-71
2022/10/15 04:30:21;;;;;;;15.30;10.03;;;18.20;99.90;;;;;;5051633;28;20204;-71
2022/10/15 04:32:52;;;;;;;13.47;8.90;;;18.20;99.90;;;;;;5028871;28;20184;-71
2022/10/15 04:35:19;;;;;;;13.60;10.00;;;18.20;99.90;;;;;;5045469;28;20196;-71
2022/10/15 04:37:45;;;;;;;16.10;9.57;;;18.20;99.90;;;;;;5044702;28;20253;-71
2022/10/15 04:40:12;;;;;;;14.50;9.50;;;18.30;99.90;;;;;;5043962;28;20192;-71
2022/10/15 04:42:38;;;;;;;13.50;9.30;;;18.30;99.90;;;;;;5010259;28;20209;-71
2022/10/15 04:45:07;;;;;;;14.27;9.60;;;18.30;99.90;;;;;;5028258;28;20267;-71
2022/10/15 04:47:33;;;;;;;13.93;8.67;;;18.40;99.90;;;;;;5030060;28;20616;-71
2022/10/15 04:50:00;;;;;;;13.93;8.93;;;18.40;99.90;;;;;;5036163;28;20327;-71
2022/10/15 04:52:26;;;;;;;12.30;9.07;;;18.40;99.90;;;;;;5034688;28;20647;-71
2022/10/15 04:54:53;;;;;;;12.17;9.07;;;18.40;99.90;;;;;;5027534;28;20203;-71
2022/10/15 04:57:19;;;;;;;11.10;8.67;;;18.40;99.90;;;;;;5045130;28;20188;-71
2022/10/15 04:59:45;;;;;;;13.40;8.37;;;18.50;99.90;;;;;;5028169;28;20205;-71
2022/10/15 05:02:13;;;;;;;12.07;7.93;;;18.50;99.90;;;;;;5027709;28;20188;-71
2022/10/15 05:04:40;;;;;;;13.20;8.13;;;18.50;99.90;;;;;;5028240;28;20243;-71
2022/10/15 05:07:07;;;;;;;11.60;8.13;;;18.60;99.90;;;;;;5027425;28;20191;-71
2022/10/15 05:09:33;;;;;;;14.53;8.03;;;18.60;99.90;;;;;;5028315;28;20227;-71
2022/10/15 05:12:00;;;;;;;11.87;7.33;;;18.60;99.90;;;;;;5026671;28;20193;-71
2022/10/15 05:14:28;;;;;;;10.83;7.50;;;18.70;99.90;;;;;;5046795;28;20196;-71
2022/10/15 05:16:54;;;;;;;12.53;7.13;;;18.70;99.90;;;;;;5047831;28;20202;-71
2022/10/15 05:19:21;;;;;;;13.17;7.63;;;18.70;99.90;;;;;;5044538;28;20186;-71
2022/10/15 05:21:48;;;;;;;11.80;7.23;;;18.80;99.90;;;;;;5011616;28;20914;-71
2022/10/15 05:24:14;;;;;;;10.57;7.37;;;18.80;99.90;;;;;;5024573;28;20271;-71
2022/10/15 05:26:45;;;;;;;15.40;7.67;;;19.00;99.90;;;;;;5022292;28;20185;-71
2022/10/15 05:29:11;;;;;;;13.27;6.20;;;19.00;99.90;;;;;;5044797;28;20180;-71
2022/10/15 05:31:40;;;;;;;9.97;6.40;;;19.10;99.90;;;;;;5026871;28;20253;-71
2022/10/15 05:34:14;;;;;;;14.40;7.23;;;19.20;99.90;;;;;;5029367;28;20203;-71
2022/10/15 05:36:40;;;;;;;11.70;6.60;;;19.20;99.90;;;;;;5023975;28;20196;-71
2022/10/15 05:39:09;;;;;;;9.67;6.30;;;19.30;99.90;;;;;;5028131;28;20199;-71
2022/10/15 05:41:36;;;;;;;12.73;6.97;;;19.40;99.90;;;;;;5044587;28;20720;-71
2022/10/15 05:44:02;;;;;;;12.00;6.20;;;19.40;99.90;;;;;;5034249;28;20222;-71
2022/10/15 05:46:28;;;;;;;9.23;6.20;;;19.50;99.90;;;;;;5054092;28;20187;-71
2022/10/15 05:48:56;;;;;;;8.80;6.23;;;19.60;99.90;;;;;;5040239;28;20183;-71
2022/10/15 05:51:27;;;;;;;8.93;6.13;;;19.60;99.90;;;;;;5017327;28;20191;-71
2022/10/15 05:53:58;;;;;;;11.77;5.60;;;19.60;99.90;;;;;;5033341;28;20642;-71
2022/10/15 05:56:26;;;;;;;11.10;5.90;;;19.70;99.90;;;;;;5040750;28;20187;-71
2022/10/15 05:58:54;;;;;;;14.33;5.60;;;19.70;99.90;;;;;;5031141;28;20329;-71
2022/10/15 06:01:23;;;;;;;12.80;6.30;;;19.80;99.90;;;;;;5027183;28;20196;-71
2022/10/15 06:03:49;;;;;;;14.57;6.03;;;19.80;99.90;;;;;;5027642;28;20677;-71
2022/10/15 06:06:19;;;;;;;10.90;6.83;;;19.80;99.90;;;;;;5046743;28;20196;-71
2022/10/15 06:08:46;;;;;;;12.30;5.80;;;19.80;99.90;;;;;;5032180;28;20188;-71
2022/10/15 06:11:14;;;;;;;8.27;5.27;;;19.90;99.90;;;;;;5028940;28;20275;-71
2022/10/15 06:13:43;;;;;;;10.60;6.20;;;19.90;99.90;;;;;;5017919;28;20936;-71
2022/10/15 06:16:11;;;;;;;13.10;5.63;;;19.90;99.90;;;;;;5030552;28;20196;-71
2022/10/15 06:18:38;;;;;;;10.30;5.93;;;19.90;99.90;;;;;;5040981;28;20812;-71
2022/10/15 06:21:06;;;;;;;11.17;5.70;;;19.90;99.90;;;;;;5031412;28;20187;-71
2022/10/15 06:23:36;;;;;;;11.53;5.67;;;19.90;99.90;;;;;;5032440;28;20222;-71
2022/10/15 06:26:06;;;;;;;12.97;5.53;;;20.00;99.90;;;;;;5048281;28;20195;-71
2022/10/15 06:28:34;;;;;;;11.33;6.23;;;20.10;99.90;;;;;;5030548;28;20188;-71
2022/10/15 06:31:01;;;;;;;8.43;5.17;;;20.10;99.90;;;;;;5033359;28;20876;-71
2022/10/15 06:33:28;;;;;;;13.70;5.90;;;20.20;99.90;;;;;;5033347;28;20206;-71
2022/10/15 06:36:00;;;;;;;11.43;5.43;;;20.30;99.90;;;;;;5031906;28;20225;-71
2022/10/15 06:38:26;;;;;;;10.80;5.10;;;20.40;99.90;;;;;;5030807;28;20188;-71
2022/10/15 06:40:52;;;;;;;10.13;5.17;;;20.40;99.90;;;;;;5012069;28;20212;-71
2022/10/15 06:43:18;;;;;;;7.83;5.50;;;20.50;99.90;;;;;;5027501;28;20189;-71
2022/10/15 06:45:45;;;;;;;13.53;4.97;;;20.50;99.90;;;;;;5029432;28;20538;-71
2022/10/15 06:48:11;;;;;;;10.63;4.57;;;20.40;99.90;;;;;;5046976;28;20657;-71
2022/10/15 06:50:38;;;;;;;9.33;4.80;;;20.40;99.90;;;;;;5027645;28;20657;-71
2022/10/15 06:53:06;;;;;;;10.73;4.83;;;20.50;99.90;;;;;;5040071;28;20196;-71
2022/10/15 06:55:34;;;;;;;10.50;5.17;;;20.60;99.90;;;;;;5034710;28;20197;-71
2022/10/15 06:58:00;;;;;;;10.80;5.27;;;20.60;99.90;;;;;;5038729;28;20292;-71
2022/10/15 07:00:27;;;;;;;13.47;5.40;;;20.60;99.90;;;;;;5027753;28;20192;-71
2022/10/15 07:02:53;;;;;;;9.83;5.17;;;20.60;99.90;;;;;;5032928;28;20195;-71
2022/10/15 07:05:20;;;;;;;8.57;5.37;;;20.60;99.90;;;;;;5043117;28;20215;-71
2022/10/15 07:07:57;;;;;;;9.00;5.53;;;20.70;99.90;;;;;;5050283;28;20191;-71
2022/10/15 07:10:25;;;;;;;9.70;5.43;;;20.70;99.90;;;;;;5049928;28;20211;-71
2022/10/15 07:12:53;;;;;;;13.93;5.50;;;20.80;99.90;;;;;;5038672;28;20192;-71
2022/10/15 07:15:20;;;;;;;10.83;5.43;;;20.80;99.90;;;;;;5052768;28;20187;-71
2022/10/15 07:17:55;;;;;;;11.47;5.67;;;20.80;99.90;;;;;;5032408;28;20188;-71
2022/10/15 07:20:22;;;;;;;9.40;5.90;;;20.80;99.90;;;;;;5028772;28;20195;-71
2022/10/15 07:22:50;;;;;;;10.17;5.47;;;20.80;99.90;;;;;;5027281;28;20219;-71
2022/10/15 07:25:18;;;;;;;12.17;5.60;;;20.90;99.90;;;;;;5026561;28;20224;-71
2022/10/15 07:27:44;;;;;;;8.90;5.20;;;21.10;99.90;;;;;;5036348;28;20185;-71
2022/10/15 07:30:18;;;;;;;11.63;5.03;;;21.20;99.90;;;;;;5038243;28;20218;-71
2022/10/15 07:32:45;;;;;;;12.67;5.60;;;21.30;99.90;;;;;;5029507;28;20200;-71
2022/10/15 07:35:13;;;;;;;11.93;5.37;;;21.30;99.90;;;;;;5023328;28;20192;-71
2022/10/15 07:37:40;;;;;;;9.77;4.90;;;21.30;99.90;;;;;;5017201;28;20200;-71
2022/10/15 07:40:07;;;;;;;10.63;5.50;;;21.40;99.90;;;;;;5027114;28;20195;-71
2022/10/15 07:42:34;;;;;;;11.37;5.37;;;21.30;99.90;;;;;;5029709;28;20275;-71
2022/10/15 07:45:00;;;;;;;9.23;5.10;;;21.30;99.90;;;;;;5040759;28;20265;-71
2022/10/15 07:47:26;;;;;;;8.83;5.00;;;21.30;99.90;;;;;;5035297;28;20276;-71
2022/10/15 07:49:52;;;;;;;8.23;4.77;;;21.60;99.90;;;;;;5022608;28;20533;-71
2022/10/15 07:52:21;;;;;;;11.40;4.90;;;21.70;99.90;;;;;;5046422;28;20185;-71
2022/10/15 07:54:48;;;;;;;12.23;4.97;;;21.70;99.90;;;;;;5028543;28;20508;-71
2022/10/15 07:57:17;;;;;;;7.95;4.45;;;21.60;99.90;;;;;;5030744;28;20192;-71
2022/10/15 07:59:44;;;;;;;12.00;6.05;;;21.70;99.90;;;;;;5023746;28;20200;-71
2022/10/15 08:02:19;;;;;;;9.23;4.88;;;21.70;99.90;;;;;;5023822;28;20196;-71
2022/10/15 08:04:45;;;;;;;10.50;5.55;;;21.70;99.90;;;;;;5004314;28;20234;-71
2022/10/15 08:07:12;;;;;;;11.38;5.38;;;21.90;99.90;;;;;;5039591;28;20191;-71
2022/10/15 08:09:38;;;;;;;8.53;4.73;;;21.80;99.90;;;;;;5033886;28;20865;-71
2022/10/15 08:12:05;;;;;;;11.53;5.23;;;21.80;99.90;;;;;;5023450;28;20595;-71
2022/10/15 08:14:36;;;;;;;7.97;4.18;;;21.80;99.90;;;;;;5039063;28;20223;-71
2022/10/15 08:17:04;;;;;;;7.50;4.20;;;21.80;99.90;;;;;;5025600;28;20192;-71
2022/10/15 08:19:33;;;;;;;6.53;4.07;;;21.90;99.90;;;;;;5006697;28;20191;-71
2022/10/15 08:22:00;;;;;;;8.67;4.57;;;22.00;99.90;;;;;;5020434;28;20642;-71
2022/10/15 08:24:27;;;;;;;10.65;4.65;;;22.10;99.90;;;;;;5034183;28;20250;-71
2022/10/15 08:26:53;;;;;;;10.98;4.80;;;22.00;99.90;;;;;;5025555;28;20185;-71
2022/10/15 08:29:19;;;;;;;10.53;4.10;;;22.10;99.90;;;;;;5003481;28;20287;-72
2022/10/15 08:31:46;;;;;;;10.25;4.78;;;22.10;99.90;;;;;;5021963;28;20250;-71
2022/10/15 08:34:13;;;;;;;8.93;4.40;;;22.10;99.90;;;;;;5036012;28;20187;-71
2022/10/15 08:36:44;;;;;;;9.50;4.35;;;22.10;99.90;;;;;;5039790;28;20270;-71
2022/10/15 08:39:11;;;;;;;8.57;4.43;;;22.20;99.90;;;;;;5020379;28;20820;-71
2022/10/15 08:41:50;;;;;;;11.15;4.60;;;22.20;99.90;;;;;;5028544;28;20184;-71
2022/10/15 08:44:25;;;;;;;7.70;4.28;;;22.30;99.90;;;;;;5030556;28;20208;-71
2022/10/15 08:47:13;;;;;;;5.88;3.70;;;22.40;99.90;;;;;;5021804;28;20712;-71
2022/10/15 08:49:55;;;;;;;7.78;3.95;;;22.40;99.90;;;;;;5031521;28;20694;-71
2022/10/15 08:52:44;;;;;;;10.55;3.60;;;22.50;99.90;;;;;;5043656;28;20194;-71
2022/10/15 08:55:17;;;;;;;7.82;3.90;;;22.50;99.90;;;;;;5019235;28;20224;-71
2022/10/15 08:58:18;;;;;;;7.45;3.53;;;22.60;99.90;;;;;;5027035;28;20638;-71
2022/10/15 09:01:05;;;;;;;6.53;3.63;;;22.70;99.90;;;;;;5019210;28;20191;-71
2022/10/15 09:04:02;;;;;;;7.18;3.50;;;22.70;99.90;;;;;;5024108;28;20218;-71
2022/10/15 09:06:34;;;;;;;6.28;3.33;;;22.90;99.90;;;;;;5033830;28;20535;-71
2022/10/15 09:09:21;;;;;;;9.55;3.90;;;22.90;99.90;;;;;;5039369;28;20210;-71
2022/10/15 09:12:35;;;;;;;6.40;3.78;;;22.90;99.90;;;;;;5044389;28;20769;-71
2022/10/15 09:15:09;;;;;;;8.05;4.28;;;22.90;99.90;;;;;;5025884;28;20217;-71
2022/10/15 09:17:36;;;;;;;5.78;3.42;;;22.90;99.90;;;;;;5026981;28;20192;-71
2022/10/15 09:20:15;;;;;;;7.50;4.20;;;23.00;99.90;;;;;;5047587;28;20246;-71
2022/10/15 09:22:43;;;;;;;8.32;3.55;;;23.20;99.90;;;;;;5010560;28;20273;-71
2022/10/15 09:25:20;;;;;;;9.93;3.72;;;23.30;99.90;;;;;;5002272;28;20303;-71
2022/10/15 09:27:49;;;;;;;15.32;3.72;;;23.30;99.90;;;;;;5021119;28;20755;-72
2022/10/15 09:30:47;;;;;;;13.93;4.82;;;23.50;99.90;;;;;;5037509;28;20203;-71
2022/10/15 09:33:50;;;;;;;10.38;4.07;;;23.50;99.90;;;;;;5040749;28;20180;-71
2022/10/15 09:36:45;;;;;;;14.52;4.47;;;23.60;99.90;;;;;;5022911;28;20192;-71
2022/10/15 09:39:32;;;;;;;8.50;3.47;;;23.70;99.90;;;;;;5024343;28;20192;-71
2022/10/15 09:42:23;;;;;;;8.02;3.45;;;23.80;99.90;;;;;;5022193;28;20184;-71
2022/10/15 09:44:53;;;;;;;6.97;3.28;;;23.80;99.90;;;;;;5026364;28;20216;-71
2022/10/15 09:47:31;;;;;;;9.50;3.70;;;23.80;99.90;;;;;;5048586;28;20184;-71
2022/10/15 09:49:57;;;;;;;6.82;3.20;;;23.90;99.90;;;;;;5028301;28;20267;-71
2022/10/15 09:52:37;;;;;;;5.88;3.17;;;24.00;99.90;;;;;;5029328;28;20275;-71
2022/10/15 09:55:19;;;;;;;6.03;3.53;;;24.20;99.90;;;;;;5039266;28;20192;-71
2022/10/15 09:57:52;;;;;;;8.27;3.55;;;24.30;99.90;;;;;;5037538;28;20630;-71
2022/10/15 10:00:19;;;;;;;7.60;4.20;;;24.40;99.90;;;;;;5012801;28;20218;-71
2022/10/15 10:03:06;;;;;;;8.77;4.10;;;24.50;99.90;;;;;;5021658;28;20192;-71
2022/10/15 10:05:36;;;;;;;8.75;4.35;;;24.60;99.90;;;;;;5019434;28;20215;-71
2022/10/15 10:08:21;;;;;;;8.77;4.32;;;24.70;99.90;;;;;;5025141;28;20192;-71
2022/10/15 10:11:07;;;;;;;7.50;4.47;;;24.70;99.90;;;;;;5041474;28;20274;-71
2022/10/15 10:13:56;;;;;;;9.38;4.85;;;24.50;99.90;;;;;;5045353;28;20263;-71
2022/10/15 10:16:24;;;;;;;11.90;4.85;;;24.60;99.90;;;;;;5035578;28;20207;-71
2022/10/15 10:19:11;;;;;;;12.70;4.95;;;24.70;99.90;;;;;;5050321;28;20186;-71
2022/10/15 10:21:41;;;;;;;11.07;4.55;;;24.90;99.90;;;;;;5027040;28;20185;-71
2022/10/15 10:24:30;;;;;;;9.90;4.93;;;24.90;99.90;;;;;;5041821;28;20200;-71
2022/10/15 10:27:01;;;;;;;10.35;4.80;;;24.90;99.90;;;;;;5013620;28;20192;-71
2022/10/15 10:29:38;;;;;;;10.90;4.40;;;24.70;99.90;;;;;;5027160;28;20278;-71
2022/10/15 10:32:33;;;;;;;8.40;4.80;;;25.00;99.90;;;;;;5027634;28;20221;-71
2022/10/15 10:35:02;;;;;;;9.02;4.75;;;25.40;99.90;;;;;;5042002;28;20692;-71
2022/10/15 10:37:42;;;;;;;6.80;4.63;;;25.60;99.90;;;;;;5040622;28;20549;-71
2022/10/15 10:40:34;;;;;;;11.73;4.47;;;25.70;99.90;;;;;;5026462;28;20783;-71
2022/10/15 10:43:16;;;;;;;7.90;4.05;;;25.60;99.90;;;;;;5024562;28;20184;-71
2022/10/15 10:46:14;;;;;;;9.20;4.60;;;25.70;99.90;;;;;;5027588;28;20226;-70
2022/10/15 10:48:50;;;;;;;6.03;3.78;;;25.80;99.90;;;;;;5022161;28;20810;-70
2022/10/15 10:51:24;;;;;;;13.38;4.80;;;27.10;99.90;;;;;;5028485;28;20196;-71
2022/10/15 10:54:10;;;;;;;9.82;4.18;;;27.10;99.90;;;;;;5044864;28;20278;-72
2022/10/15 10:56:44;;;;;;;11.77;4.65;;;26.10;99.90;;;;;;5015896;28;20212;-71
2022/10/15 10:59:48;;;;;;;13.52;4.40;;;25.50;99.90;;;;;;5020521;28;20238;-71
2022/10/15 11:02:15;;;;;;;9.55;4.47;;;25.20;99.90;;;;;;5041924;28;20275;-72
2022/10/15 11:04:42;;;;;;;9.93;5.00;;;25.00;99.90;;;;;;5028966;28;20227;-72
2022/10/15 11:07:25;;;;;;;11.13;4.55;;;24.70;99.90;;;;;;5037827;28;20192;-71
2022/10/15 11:10:18;;;;;;;10.15;4.90;;;24.60;99.90;;;;;;5004791;28;20207;-71
2022/10/15 11:13:27;;;;;;;10.40;4.57;;;24.60;99.90;;;;;;5022556;28;20180;-72
2022/10/15 11:16:15;;;;;;;8.40;4.88;;;24.50;99.90;;;;;;5020657;28;20665;-72
2022/10/15 11:19:12;;;;;;;13.07;4.50;;;24.30;99.90;;;;;;5010249;28;20222;-71
2022/10/15 11:22:15;;;;;;;12.07;4.80;;;24.10;99.90;;;;;;5011091;28;20544;-71
2022/10/15 11:24:48;;;;;;;11.90;4.50;;;23.90;99.90;;;;;;5026331;28;20704;-71
2022/10/15 11:28:06;;;;;;;10.82;5.03;;;23.80;99.90;;;;;;5024066;28;20212;-71
2022/10/15 11:30:49;;;;;;;11.27;4.97;;;23.70;99.90;;;;;;4998399;28;20291;-71
2022/10/15 11:33:42;;;;;;;10.15;4.93;;;23.70;99.90;;;;;;5024911;28;20191;-72
2022/10/15 11:36:28;;;;;;;8.70;4.82;;;23.60;99.90;;;;;;5021972;28;20192;-72
2022/10/15 11:39:48;;;;;;;10.15;5.25;;;23.60;99.90;;;;;;5030988;28;20301;-72
2022/10/15 11:42:28;;;;;;;13.05;5.22;;;23.60;99.90;;;;;;5018989;28;20184;-72
2022/10/15 11:45:29;;;;;;;8.88;4.70;;;23.80;99.90;;;;;;5021892;28;20212;-72
2022/10/15 11:48:08;;;;;;;14.77;5.25;;;23.80;99.90;;;;;;5002378;28;20203;-72
2022/10/15 11:50:58;;;;;;;11.40;5.40;;;23.60;99.90;;;;;;5022376;28;20285;-72
2022/10/15 11:53:30;;;;;;;8.32;5.07;;;23.60;99.90;;;;;;5016327;28;20183;-72
2022/10/15 11:56:32;;;;;;;11.77;5.43;;;23.60;99.90;;;;;;5020731;28;20761;-72
2022/10/15 11:59:29;;;;;;;7.32;4.88;;;23.50;99.90;;;;;;5005520;28;20192;-72
2022/10/15 12:02:19;;;;;;;7.50;4.82;;;23.50;99.90;;;;;;5019481;28;20215;-72
2022/10/15 12:04:51;;;;;;;12.65;5.30;;;23.40;99.90;;;;;;5036085;28;20217;-72
2022/10/15 12:07:42;;;;;;;10.98;5.25;;;23.40;99.90;;;;;;5026450;28;20593;-72
2022/10/15 12:10:11;;;;;;;8.85;5.13;;;23.40;99.90;;;;;;5026868;28;20246;-72
2022/10/15 12:12:58;;;;;;;9.13;4.90;;;23.40;99.90;;;;;;5023345;28;20278;-71
2022/10/15 12:15:53;;;;;;;13.38;5.40;;;23.20;99.90;;;;;;5036218;28;20208;-72
2022/10/15 12:18:52;;;;;;;13.07;5.07;;;23.20;99.90;;;;;;5020326;28;20188;-72
2022/10/15 12:21:33;;;;;;;17.85;5.47;;;23.20;99.90;;;;;;5016344;28;20569;-72
2022/10/15 12:24:00;;;;;;;10.95;5.05;;;23.20;99.90;;;;;;5003961;28;20211;-71
2022/10/15 12:26:33;;;;;;;10.98;5.25;;;23.10;99.90;;;;;;5019766;28;20216;-71
2022/10/15 12:29:21;;;;;;;9.63;5.38;;;23.10;99.90;;;;;;5018118;28;20189;-71
2022/10/15 12:31:52;;;;;;;10.30;6.00;;;22.90;99.90;;;;;;5018794;28;20180;-71
2022/10/15 12:34:42;;;;;;;8.85;5.30;;;22.90;99.90;;;;;;5040070;28;20199;-71
2022/10/15 12:37:26;;;;;;;13.38;5.93;;;22.80;99.90;;;;;;5037219;28;20191;-71
2022/10/15 12:40:22;;;;;;;10.68;5.88;;;22.80;99.90;;;;;;5001645;28;20196;-71
2022/10/15 12:43:15;;;;;;;6.30;5.60;;;22.80;99.90;;;;;;5020942;28;20191;-71
2022/10/15 12:45:56;;;;;;;13.40;6.20;;;22.70;99.90;;;;;;5019459;28;20216;-72
2022/10/15 12:48:34;;;;;;;12.35;6.00;;;22.70;99.90;;;;;;5018376;28;20334;-72
2022/10/15 12:51:16;;;;;;;12.00;6.70;;;22.80;99.90;;;;;;5027587;28;20214;-71
2022/10/15 12:53:50;;;;;;;10.65;6.60;;;22.80;99.90;;;;;;5034862;28;20234;-71
2022/10/15 12:56:17;;;;;;;12.23;6.35;;;22.90;99.90;;;;;;4999617;28;20199;-71
2022/10/15 12:58:50;;;;;;;14.27;6.33;;;22.90;99.90;;;;;;5023629;28;20180;-71
2022/10/15 13:01:19;;;;;;;10.18;7.10;;;22.90;99.90;;;;;;5002684;28;20185;-71
2022/10/15 13:03:50;;;;;;;11.23;6.50;;;22.90;99.90;;;;;;5044371;28;20192;-71
2022/10/15 13:06:29;;;;;;;12.20;7.43;;;22.90;99.90;;;;;;5006681;28;20191;-71
2022/10/15 13:09:11;;;;;;;9.80;7.05;;;22.80;99.90;;;;;;5022642;28;20204;-71
2022/10/15 13:11:49;;;;;;;12.20;6.97;;;22.80;99.90;;;;;;5045528;28;20206;-71
2022/10/15 13:14:29;;;;;;;10.38;6.85;;;22.70;99.90;;;;;;5023844;28;20196;-71